sensor_id;sensor_type;location;lat;lon;timestamp;temperature;humidity
3086;DHT22;52812;48.960;9.108;2024-02-23T00:00:41;7.00;99.90
3086;DHT22;52812;48.960;9.108;2024-02-23T00:03:07;7.00;99.90
3086;DHT22;52812;48.960;9.108;2024-02-23T00:05:33;7.00;99.90
3086;DHT22;52812;48.960;9.108;2024-02-23T00:07:59;7.00;99.90
3086;DHT22;52812;48.960;9.108;2024-02-23T00:10:24;7.00;99.90
3086;DHT22;52812;48.960;9.108;2024-02-23T00:12:51;7.00;99.90
3086;DHT22;52812;48.960;9.108;2024-02-23T00:15:17;7.10;99.90
3086;DHT22;52812;48.960;9.108;2024-02-23T00:17:43;7.00;99.90
3086;DHT22;52812;48.960;9.108;2024-02-23T00:20:09;7.00;99.90
3086;DHT22;52812;48.960;9.108;2024-02-23T00:22:38;7.00;99.90
3086;DHT22;52812;48.960;9.108;2024-02-23T00:25:04;7.00;99.90
3086;DHT22;52812;48.960;9.108;2024-02-23T00:27:30;7.00;99.90
3086;DHT22;52812;48.960;9.108;2024-02-23T00:29:55;6.90;99.90
3086;DHT22;52812;48.960;9.108;2024-02-23T00:32:21;6.90;99.90
3086;DHT22;52812;48.960;9.108;2024-02-23T00:34:47;7.00;99.90
3086;DHT22;52812;48.960;9.108;2024-02-23T00:37:13;7.00;99.90
3086;DHT22;52812;48.960;9.108;2024-02-23T00:39:39;6.90;99.90
3086;DHT22;52812;48.960;9.108;2024-02-23T00:42:04;6.90;99.90
3086;DHT22;52812;48.960;9.108;2024-02-23T00:44:30;6.90;99.90
3086;DHT22;52812;48.960;9.108;2024-02-23T00:46:56;6.90;99.90
3086;DHT22;52812;48.960;9.108;2024-02-23T00:49:23;6.80;99.90
3086;DHT22;52812;48.960;9.108;2024-02-23T00:51:49;6.80;99.90
3086;DHT22;52812;48.960;9.108;2024-02-23T00:54:15;6.80;99.90
3086;DHT22;52812;48.960;9.108;2024-02-23T00:56:40;6.80;99.90
3086;DHT22;52812;48.960;9.108;2024-02-23T00:59:06;6.80;99.90
3086;DHT22;52812;48.960;9.108;2024-02-23T01:01:31;6.80;99.90
3086;DHT22;52812;48.960;9.108;2024-02-23T01:03:57;6.80;99.90
3086;DHT22;52812;48.960;9.108;2024-02-23T01:06:23;6.70;99.90
3086;DHT22;52812;48.960;9.108;2024-02-23T01:08:50;6.70;99.90
3086;DHT22;52812;48.960;9.108;2024-02-23T01:11:15;6.70;99.90
3086;DHT22;52812;48.960;9.108;2024-02-23T01:13:41;6.70;99.90
3086;DHT22;52812;48.960;9.108;2024-02-23T01:16:07;6.70;99.90
3086;DHT22;52812;48.960;9.108;2024-02-23T01:18:33;6.70;99.90
3086;DHT22;52812;48.960;9.108;2024-02-23T01:20:59;6.60;99.90
3086;DHT22;52812;48.960;9.108;2024-02-23T01:23:24;6.60;99.90
3086;DHT22;52812;48.960;9.108;2024-02-23T01:25:50;6.50;99.90
3086;DHT22;52812;48.960;9.108;2024-02-23T01:28:15;6.60;99.90
3086;DHT22;52812;48.960;9.108;2024-02-23T01:30:41;6.50;99.90
3086;DHT22;52812;48.960;9.108;2024-02-23T01:33:06;6.50;99.90
3086;DHT22;52812;48.960;9.108;2024-02-23T01:35:32;6.50;99.90
3086;DHT22;52812;48.960;9.108;2024-02-23T01:37:57;6.50;99.90
3086;DHT22;52812;48.960;9.108;2024-02-23T01:40:23;6.60;99.90
3086;DHT22;52812;48.960;9.108;2024-02-23T01:42:49;6.60;99.90
3086;DHT22;52812;48.960;9.108;2024-02-23T01:45:25;6.60;99.90
3086;DHT22;52812;48.960;9.108;2024-02-23T01:47:50;6.50;99.90
3086;DHT22;52812;48.960;9.108;2024-02-23T01:50:16;6.40;99.90
3086;DHT22;52812;48.960;9.108;2024-02-23T01:52:41;6.40;99.90
3086;DHT22;52812;48.960;9.108;2024-02-23T01:55:08;6.50;99.90
3086;DHT22;52812;48.960;9.108;2024-02-23T01:57:34;6.50;99.90
3086;DHT22;52812;48.960;9.108;2024-02-23T02:00:00;6.50;99.90
3086;DHT22;52812;48.960;9.108;2024-02-23T02:02:25;6.50;99.90
3086;DHT22;52812;48.960;9.108;2024-02-23T02:04:51;6.50;99.90
3086;DHT22;52812;48.960;9.108;2024-02-23T02:07:17;6.70;99.90
3086;DHT22;52812;48.960;9.108;2024-02-23T02:09:43;6.60;99.90
3086;DHT22;52812;48.960;9.108;2024-02-23T02:12:09;6.60;99.90
3086;DHT22;52812;48.960;9.108;2024-02-23T02:14:34;6.50;99.90
3086;DHT22;52812;48.960;9.108;2024-02-23T02:17:00;6.60;99.90
3086;DHT22;52812;48.960;9.108;2024-02-23T02:19:25;6.60;99.90
3086;DHT22;52812;48.960;9.108;2024-02-23T02:21:51;6.50;99.90
3086;DHT22;52812;48.960;9.108;2024-02-23T02:24:16;6.50;99.90
3086;DHT22;52812;48.960;9.108;2024-02-23T02:26:42;6.40;99.90
3086;DHT22;52812;48.960;9.108;2024-02-23T02:29:10;6.30;99.90
3086;DHT22;52812;48.960;9.108;2024-02-23T02:31:36;6.30;99.90
3086;DHT22;52812;48.960;9.108;2024-02-23T02:34:03;6.20;99.90
3086;DHT22;52812;48.960;9.108;2024-02-23T02:36:29;6.20;99.90
3086;DHT22;52812;48.960;9.108;2024-02-23T02:38:55;6.20;99.90
3086;DHT22;52812;48.960;9.108;2024-02-23T02:41:23;6.10;99.90
3086;DHT22;52812;48.960;9.108;2024-02-23T02:43:49;6.10;99.90
3086;DHT22;52812;48.960;9.108;2024-02-23T02:46:15;6.00;99.90
3086;DHT22;52812;48.960;9.108;2024-02-23T02:48:40;6.00;99.90
3086;DHT22;52812;48.960;9.108;2024-02-23T02:51:06;6.00;99.90
3086;DHT22;52812;48.960;9.108;2024-02-23T02:53:32;5.90;99.90
3086;DHT22;52812;48.960;9.108;2024-02-23T02:55:57;5.90;99.90
3086;DHT22;52812;48.960;9.108;2024-02-23T02:58:23;5.80;99.90
3086;DHT22;52812;48.960;9.108;2024-02-23T03:00:48;5.80;99.90
3086;DHT22;52812;48.960;9.108;2024-02-23T03:03:14;5.80;99.90
3086;DHT22;52812;48.960;9.108;2024-02-23T03:05:39;5.70;99.90
3086;DHT22;52812;48.960;9.108;2024-02-23T03:08:05;5.70;99.90
3086;DHT22;52812;48.960;9.108;2024-02-23T03:10:31;5.70;99.90
3086;DHT22;52812;48.960;9.108;2024-02-23T03:12:56;5.60;99.90
3086;DHT22;52812;48.960;9.108;2024-02-23T03:15:22;5.70;99.90
3086;DHT22;52812;48.960;9.108;2024-02-23T03:17:47;5.60;99.90
3086;DHT22;52812;48.960;9.108;2024-02-23T03:20:15;5.60;99.90
3086;DHT22;52812;48.960;9.108;2024-02-23T03:22:40;5.60;99.90
3086;DHT22;52812;48.960;9.108;2024-02-23T03:25:06;5.60;99.90
3086;DHT22;52812;48.960;9.108;2024-02-23T03:27:36;5.70;99.90
3086;DHT22;52812;48.960;9.108;2024-02-23T03:30:03;5.70;99.90
3086;DHT22;52812;48.960;9.108;2024-02-23T03:32:29;5.70;99.90
3086;DHT22;52812;48.960;9.108;2024-02-23T03:34:56;5.70;99.90
3086;DHT22;52812;48.960;9.108;2024-02-23T03:37:22;5.80;99.90
3086;DHT22;52812;48.960;9.108;2024-02-23T03:39:47;5.80;99.90
3086;DHT22;52812;48.960;9.108;2024-02-23T03:42:14;5.80;99.90
3086;DHT22;52812;48.960;9.108;2024-02-23T03:44:40;5.80;99.90
3086;DHT22;52812;48.960;9.108;2024-02-23T03:47:08;5.80;99.90
3086;DHT22;52812;48.960;9.108;2024-02-23T03:49:33;5.80;99.90
3086;DHT22;52812;48.960;9.108;2024-02-23T03:51:59;5.70;99.90
3086;DHT22;52812;48.960;9.108;2024-02-23T03:54:24;5.70;99.90
3086;DHT22;52812;48.960;9.108;2024-02-23T03:56:50;5.70;99.90
3086;DHT22;52812;48.960;9.108;2024-02-23T03:59:15;5.60;99.90
3086;DHT22;52812;48.960;9.108;2024-02-23T04:01:41;5.70;99.90
3086;DHT22;52812;48.960;9.108;2024-02-23T04:04:07;5.60;99.90
3086;DHT22;52812;48.960;9.108;2024-02-23T04:06:33;5.60;99.90
3086;DHT22;52812;48.960;9.108;2024-02-23T04:08:59;5.60;99.90
3086;DHT22;52812;48.960;9.108;2024-02-23T04:11:24;5.50;99.90
3086;DHT22;52812;48.960;9.108;2024-02-23T04:13:50;5.50;99.90
3086;DHT22;52812;48.960;9.108;2024-02-23T04:16:16;5.50;99.90
3086;DHT22;52812;48.960;9.108;2024-02-23T04:18:41;5.50;99.90
3086;DHT22;52812;48.960;9.108;2024-02-23T04:21:07;5.40;99.90
3086;DHT22;52812;48.960;9.108;2024-02-23T04:23:32;5.40;99.90
3086;DHT22;52812;48.960;9.108;2024-02-23T04:25:59;5.40;99.90
3086;DHT22;52812;48.960;9.108;2024-02-23T04:28:24;5.30;99.90
3086;DHT22;52812;48.960;9.108;2024-02-23T04:30:52;5.30;99.90
3086;DHT22;52812;48.960;9.108;2024-02-23T04:33:17;5.30;99.90
3086;DHT22;52812;48.960;9.108;2024-02-23T04:35:43;5.30;99.90
3086;DHT22;52812;48.960;9.108;2024-02-23T04:38:08;5.30;99.90
3086;DHT22;52812;48.960;9.108;2024-02-23T04:40:34;5.40;99.90
3086;DHT22;52812;48.960;9.108;2024-02-23T04:42:59;5.40;99.90
3086;DHT22;52812;48.960;9.108;2024-02-23T04:45:25;5.40;99.90
3086;DHT22;52812;48.960;9.108;2024-02-23T04:47:50;5.40;99.90
3086;DHT22;52812;48.960;9.108;2024-02-23T04:50:16;5.40;99.90
3086;DHT22;52812;48.960;9.108;2024-02-23T04:52:42;5.40;99.90
3086;DHT22;52812;48.960;9.108;2024-02-23T04:55:08;5.40;99.90
3086;DHT22;52812;48.960;9.108;2024-02-23T04:57:33;5.40;99.90
3086;DHT22;52812;48.960;9.108;2024-02-23T04:59:59;5.40;99.90
3086;DHT22;52812;48.960;9.108;2024-02-23T05:02:25;5.40;99.90
3086;DHT22;52812;48.960;9.108;2024-02-23T05:04:53;5.30;99.90
3086;DHT22;52812;48.960;9.108;2024-02-23T05:07:19;5.30;99.90
3086;DHT22;52812;48.960;9.108;2024-02-23T05:09:44;5.20;99.90
3086;DHT22;52812;48.960;9.108;2024-02-23T05:12:10;5.20;99.90
3086;DHT22;52812;48.960;9.108;2024-02-23T05:14:35;5.10;99.90
3086;DHT22;52812;48.960;9.108;2024-02-23T05:17:01;5.00;99.90
3086;DHT22;52812;48.960;9.108;2024-02-23T05:19:27;4.90;99.90
3086;DHT22;52812;48.960;9.108;2024-02-23T05:21:52;4.80;99.90
3086;DHT22;52812;48.960;9.108;2024-02-23T05:24:18;4.70;99.90
3086;DHT22;52812;48.960;9.108;2024-02-23T05:26:43;4.70;99.90
3086;DHT22;52812;48.960;9.108;2024-02-23T05:29:10;4.50;99.90
3086;DHT22;52812;48.960;9.108;2024-02-23T05:31:49;4.40;99.90
3086;DHT22;52812;48.960;9.108;2024-02-23T05:34:15;4.40;99.90
3086;DHT22;52812;48.960;9.108;2024-02-23T05:36:41;4.40;99.90
3086;DHT22;52812;48.960;9.108;2024-02-23T05:39:07;4.50;99.90
3086;DHT22;52812;48.960;9.108;2024-02-23T05:41:33;4.50;99.90
3086;DHT22;52812;48.960;9.108;2024-02-23T05:43:59;4.60;99.90
3086;DHT22;52812;48.960;9.108;2024-02-23T05:46:24;4.60;99.90
3086;DHT22;52812;48.960;9.108;2024-02-23T05:48:50;4.70;99.90
3086;DHT22;52812;48.960;9.108;2024-02-23T05:51:15;4.70;99.90
3086;DHT22;52812;48.960;9.108;2024-02-23T05:53:41;4.80;99.90
3086;DHT22;52812;48.960;9.108;2024-02-23T05:56:07;4.80;99.90
3086;DHT22;52812;48.960;9.108;2024-02-23T05:58:33;4.80;99.90
3086;DHT22;52812;48.960;9.108;2024-02-23T06:00:58;4.80;99.90
3086;DHT22;52812;48.960;9.108;2024-02-23T06:03:24;4.90;99.90
3086;DHT22;52812;48.960;9.108;2024-02-23T06:05:50;4.90;99.90
3086;DHT22;52812;48.960;9.108;2024-02-23T06:08:15;4.80;99.90
3086;DHT22;52812;48.960;9.108;2024-02-23T06:10:41;4.80;99.90
3086;DHT22;52812;48.960;9.108;2024-02-23T06:13:08;4.80;99.90
3086;DHT22;52812;48.960;9.108;2024-02-23T06:15:33;4.80;99.90
3086;DHT22;52812;48.960;9.108;2024-02-23T06:17:59;4.70;99.90
3086;DHT22;52812;48.960;9.108;2024-02-23T06:20:24;4.70;99.90
3086;DHT22;52812;48.960;9.108;2024-02-23T06:22:50;4.70;99.90
3086;DHT22;52812;48.960;9.108;2024-02-23T06:25:16;4.70;99.90
3086;DHT22;52812;48.960;9.108;2024-02-23T06:27:41;4.60;99.90
3086;DHT22;52812;48.960;9.108;2024-02-23T06:30:07;4.50;99.90
3086;DHT22;52812;48.960;9.108;2024-02-23T06:32:33;4.50;99.90
3086;DHT22;52812;48.960;9.108;2024-02-23T06:34:59;4.50;99.90
3086;DHT22;52812;48.960;9.108;2024-02-23T06:37:25;4.40;99.90
3086;DHT22;52812;48.960;9.108;2024-02-23T06:39:50;4.40;99.90
3086;DHT22;52812;48.960;9.108;2024-02-23T06:42:20;4.40;99.90
3086;DHT22;52812;48.960;9.108;2024-02-23T06:44:46;4.40;99.90
3086;DHT22;52812;48.960;9.108;2024-02-23T06:47:12;4.30;99.90
3086;DHT22;52812;48.960;9.108;2024-02-23T06:49:41;4.30;99.90
3086;DHT22;52812;48.960;9.108;2024-02-23T06:52:07;4.30;99.90
3086;DHT22;52812;48.960;9.108;2024-02-23T06:54:33;4.30;99.90
3086;DHT22;52812;48.960;9.108;2024-02-23T06:56:58;4.30;99.90
3086;DHT22;52812;48.960;9.108;2024-02-23T06:59:24;4.30;99.90
3086;DHT22;52812;48.960;9.108;2024-02-23T07:01:50;4.30;99.90
3086;DHT22;52812;48.960;9.108;2024-02-23T07:04:16;4.40;99.90
3086;DHT22;52812;48.960;9.108;2024-02-23T07:06:41;4.40;99.90
3086;DHT22;52812;48.960;9.108;2024-02-23T07:09:07;4.50;99.90
3086;DHT22;52812;48.960;9.108;2024-02-23T07:11:33;4.60;99.90
3086;DHT22;52812;48.960;9.108;2024-02-23T07:13:59;4.60;99.90
3086;DHT22;52812;48.960;9.108;2024-02-23T07:16:24;4.60;99.90
3086;DHT22;52812;48.960;9.108;2024-02-23T07:18:50;4.70;99.90
3086;DHT22;52812;48.960;9.108;2024-02-23T07:21:19;4.70;99.90
3086;DHT22;52812;48.960;9.108;2024-02-23T07:23:44;4.70;99.90
3086;DHT22;52812;48.960;9.108;2024-02-23T07:26:10;4.80;99.90
3086;DHT22;52812;48.960;9.108;2024-02-23T07:28:35;4.80;99.90
3086;DHT22;52812;48.960;9.108;2024-02-23T07:31:01;4.90;99.90
3086;DHT22;52812;48.960;9.108;2024-02-23T07:33:26;4.90;99.90
3086;DHT22;52812;48.960;9.108;2024-02-23T07:35:52;5.00;99.90
3086;DHT22;52812;48.960;9.108;2024-02-23T07:38:17;5.00;99.90
3086;DHT22;52812;48.960;9.108;2024-02-23T07:40:45;4.90;99.90
3086;DHT22;52812;48.960;9.108;2024-02-23T07:43:11;5.00;99.90
3086;DHT22;52812;48.960;9.108;2024-02-23T07:45:37;5.10;99.90
3086;DHT22;52812;48.960;9.108;2024-02-23T07:48:03;5.10;99.90
3086;DHT22;52812;48.960;9.108;2024-02-23T07:50:29;5.20;99.90
3086;DHT22;52812;48.960;9.108;2024-02-23T07:52:54;5.30;99.90
3086;DHT22;52812;48.960;9.108;2024-02-23T07:55:20;5.40;99.90
3086;DHT22;52812;48.960;9.108;2024-02-23T07:57:46;5.50;99.90
3086;DHT22;52812;48.960;9.108;2024-02-23T08:00:11;5.60;99.90
3086;DHT22;52812;48.960;9.108;2024-02-23T08:02:38;5.70;99.90
3086;DHT22;52812;48.960;9.108;2024-02-23T08:05:03;5.70;99.90
3086;DHT22;52812;48.960;9.108;2024-02-23T08:07:29;5.70;99.90
3086;DHT22;52812;48.960;9.108;2024-02-23T08:09:56;5.60;99.90
3086;DHT22;52812;48.960;9.108;2024-02-23T08:12:22;5.60;99.90
3086;DHT22;52812;48.960;9.108;2024-02-23T08:14:48;5.50;99.90
3086;DHT22;52812;48.960;9.108;2024-02-23T08:17:14;5.50;99.90
3086;DHT22;52812;48.960;9.108;2024-02-23T08:19:40;5.50;99.90
3086;DHT22;52812;48.960;9.108;2024-02-23T08:22:06;5.40;99.90
3086;DHT22;52812;48.960;9.108;2024-02-23T08:24:31;5.50;99.90
3086;DHT22;52812;48.960;9.108;2024-02-23T08:26:57;5.50;99.90
3086;DHT22;52812;48.960;9.108;2024-02-23T08:29:22;5.50;99.90
3086;DHT22;52812;48.960;9.108;2024-02-23T08:31:48;5.50;99.90
3086;DHT22;52812;48.960;9.108;2024-02-23T08:34:14;5.60;99.90
3086;DHT22;52812;48.960;9.108;2024-02-23T08:36:40;5.70;99.90
3086;DHT22;52812;48.960;9.108;2024-02-23T08:39:05;5.80;99.90
3086;DHT22;52812;48.960;9.108;2024-02-23T08:41:32;5.80;99.90
3086;DHT22;52812;48.960;9.108;2024-02-23T08:43:57;5.70;99.90
3086;DHT22;52812;48.960;9.108;2024-02-23T08:46:23;5.70;99.90
3086;DHT22;52812;48.960;9.108;2024-02-23T08:48:48;5.70;99.90
3086;DHT22;52812;48.960;9.108;2024-02-23T08:51:14;5.70;99.90
3086;DHT22;52812;48.960;9.108;2024-02-23T08:53:40;5.70;99.90
3086;DHT22;52812;48.960;9.108;2024-02-23T08:56:07;5.70;99.90
3086;DHT22;52812;48.960;9.108;2024-02-23T08:58:33;5.60;99.90
3086;DHT22;52812;48.960;9.108;2024-02-23T09:00:59;5.70;99.90
3086;DHT22;52812;48.960;9.108;2024-02-23T09:03:24;5.70;99.90
3086;DHT22;52812;48.960;9.108;2024-02-23T09:05:50;5.70;99.90
3086;DHT22;52812;48.960;9.108;2024-02-23T09:08:16;5.70;99.90
3086;DHT22;52812;48.960;9.108;2024-02-23T09:10:41;5.80;99.90
3086;DHT22;52812;48.960;9.108;2024-02-23T09:13:07;5.80;99.90
3086;DHT22;52812;48.960;9.108;2024-02-23T09:15:32;5.80;99.90
3086;DHT22;52812;48.960;9.108;2024-02-23T09:17:58;5.90;99.90
3086;DHT22;52812;48.960;9.108;2024-02-23T09:20:23;5.80;99.90
3086;DHT22;52812;48.960;9.108;2024-02-23T09:22:49;5.80;99.90
3086;DHT22;52812;48.960;9.108;2024-02-23T09:25:15;5.80;99.90
3086;DHT22;52812;48.960;9.108;2024-02-23T09:27:40;5.80;99.90
3086;DHT22;52812;48.960;9.108;2024-02-23T09:30:12;5.80;99.90
3086;DHT22;52812;48.960;9.108;2024-02-23T09:32:38;5.90;99.90
3086;DHT22;52812;48.960;9.108;2024-02-23T09:35:04;5.90;99.90
3086;DHT22;52812;48.960;9.108;2024-02-23T09:37:30;5.90;99.90
3086;DHT22;52812;48.960;9.108;2024-02-23T09:39:56;6.20;99.90
3086;DHT22;52812;48.960;9.108;2024-02-23T09:42:23;6.50;99.90
3086;DHT22;52812;48.960;9.108;2024-02-23T09:44:58;6.60;99.90
3086;DHT22;52812;48.960;9.108;2024-02-23T09:47:27;6.70;99.90
3086;DHT22;52812;48.960;9.108;2024-02-23T09:49:54;6.90;99.90
3086;DHT22;52812;48.960;9.108;2024-02-23T09:52:21;7.10;99.90
3086;DHT22;52812;48.960;9.108;2024-02-23T09:54:47;7.40;99.90
3086;DHT22;52812;48.960;9.108;2024-02-23T09:57:14;7.60;99.90
3086;DHT22;52812;48.960;9.108;2024-02-23T09:59:41;7.70;99.90
3086;DHT22;52812;48.960;9.108;2024-02-23T10:02:14;7.80;99.90
3086;DHT22;52812;48.960;9.108;2024-02-23T10:04:41;7.80;99.90
3086;DHT22;52812;48.960;9.108;2024-02-23T10:07:08;7.70;99.90
3086;DHT22;52812;48.960;9.108;2024-02-23T10:09:33;7.70;99.90
3086;DHT22;52812;48.960;9.108;2024-02-23T10:11:59;7.70;99.90
3086;DHT22;52812;48.960;9.108;2024-02-23T10:14:24;7.70;99.90
3086;DHT22;52812;48.960;9.108;2024-02-23T10:16:50;7.60;99.90
3086;DHT22;52812;48.960;9.108;2024-02-23T10:19:22;7.60;99.90
3086;DHT22;52812;48.960;9.108;2024-02-23T10:21:48;7.70;99.90
3086;DHT22;52812;48.960;9.108;2024-02-23T10:24:16;7.60;99.90
3086;DHT22;52812;48.960;9.108;2024-02-23T10:26:42;7.60;99.90
3086;DHT22;52812;48.960;9.108;2024-02-23T10:29:08;7.60;99.90
3086;DHT22;52812;48.960;9.108;2024-02-23T10:31:36;7.60;99.90
3086;DHT22;52812;48.960;9.108;2024-02-23T10:34:09;7.60;99.90
3086;DHT22;52812;48.960;9.108;2024-02-23T10:36:41;7.60;99.90
3086;DHT22;52812;48.960;9.108;2024-02-23T10:39:08;7.60;99.90
3086;DHT22;52812;48.960;9.108;2024-02-23T10:41:39;7.90;99.90
3086;DHT22;52812;48.960;9.108;2024-02-23T10:44:09;8.10;99.90
3086;DHT22;52812;48.960;9.108;2024-02-23T10:46:37;8.20;99.90
3086;DHT22;52812;48.960;9.108;2024-02-23T10:49:03;8.30;99.90
3086;DHT22;52812;48.960;9.108;2024-02-23T10:51:30;8.50;99.90
3086;DHT22;52812;48.960;9.108;2024-02-23T10:53:57;8.70;99.90
3086;DHT22;52812;48.960;9.108;2024-02-23T10:56:22;8.80;99.90
3086;DHT22;52812;48.960;9.108;2024-02-23T10:58:49;8.90;99.90
3086;DHT22;52812;48.960;9.108;2024-02-23T11:01:16;8.70;99.90
3086;DHT22;52812;48.960;9.108;2024-02-23T11:03:44;8.60;99.90
3086;DHT22;52812;48.960;9.108;2024-02-23T11:06:16;8.70;99.90
3086;DHT22;52812;48.960;9.108;2024-02-23T11:08:46;8.70;99.90
3086;DHT22;52812;48.960;9.108;2024-02-23T11:11:16;8.50;99.90
3086;DHT22;52812;48.960;9.108;2024-02-23T11:13:44;8.50;99.90
3086;DHT22;52812;48.960;9.108;2024-02-23T11:16:10;8.50;99.90
3086;DHT22;52812;48.960;9.108;2024-02-23T11:18:36;8.50;99.90
3086;DHT22;52812;48.960;9.108;2024-02-23T11:21:04;8.50;99.90
3086;DHT22;52812;48.960;9.108;2024-02-23T11:23:42;8.50;99.90
3086;DHT22;52812;48.960;9.108;2024-02-23T11:26:12;8.70;99.90
3086;DHT22;52812;48.960;9.108;2024-02-23T11:28:56;8.90;99.90
3086;DHT22;52812;48.960;9.108;2024-02-23T11:31:23;8.90;99.90
3086;DHT22;52812;48.960;9.108;2024-02-23T11:33:53;8.90;99.90
3086;DHT22;52812;48.960;9.108;2024-02-23T11:36:32;9.00;99.90
3086;DHT22;52812;48.960;9.108;2024-02-23T11:39:00;9.10;99.90
3086;DHT22;52812;48.960;9.108;2024-02-23T11:41:27;9.00;99.90
3086;DHT22;52812;48.960;9.108;2024-02-23T11:43:54;8.90;99.90
3086;DHT22;52812;48.960;9.108;2024-02-23T11:46:26;8.80;99.90
3086;DHT22;52812;48.960;9.108;2024-02-23T11:48:51;8.80;99.90
3086;DHT22;52812;48.960;9.108;2024-02-23T11:51:21;8.70;99.90
3086;DHT22;52812;48.960;9.108;2024-02-23T11:53:47;8.70;99.90
3086;DHT22;52812;48.960;9.108;2024-02-23T11:56:13;8.70;99.90
3086;DHT22;52812;48.960;9.108;2024-02-23T11:58:42;8.70;99.90
3086;DHT22;52812;48.960;9.108;2024-02-23T12:01:08;8.80;99.90
3086;DHT22;52812;48.960;9.108;2024-02-23T12:03:34;8.90;99.90
3086;DHT22;52812;48.960;9.108;2024-02-23T12:06:00;8.90;99.90
3086;DHT22;52812;48.960;9.108;2024-02-23T12:08:27;8.90;99.90
3086;DHT22;52812;48.960;9.108;2024-02-23T12:10:55;9.10;99.90
3086;DHT22;52812;48.960;9.108;2024-02-23T12:13:22;9.20;99.90
3086;DHT22;52812;48.960;9.108;2024-02-23T12:15:48;9.30;99.90
3086;DHT22;52812;48.960;9.108;2024-02-23T12:18:14;9.20;99.90
3086;DHT22;52812;48.960;9.108;2024-02-23T12:20:42;9.10;99.90
3086;DHT22;52812;48.960;9.108;2024-02-23T12:23:08;9.10;99.90
3086;DHT22;52812;48.960;9.108;2024-02-23T12:25:35;9.00;99.90
3086;DHT22;52812;48.960;9.108;2024-02-23T12:28:01;9.00;99.90
3086;DHT22;52812;48.960;9.108;2024-02-23T12:30:27;9.00;99.90
3086;DHT22;52812;48.960;9.108;2024-02-23T12:33:05;9.00;99.90
3086;DHT22;52812;48.960;9.108;2024-02-23T12:35:33;9.00;99.90
3086;DHT22;52812;48.960;9.108;2024-02-23T12:37:59;8.90;99.90
3086;DHT22;52812;48.960;9.108;2024-02-23T12:40:25;8.90;99.90
3086;DHT22;52812;48.960;9.108;2024-02-23T12:42:50;8.90;99.90
3086;DHT22;52812;48.960;9.108;2024-02-23T12:45:16;8.80;99.90
3086;DHT22;52812;48.960;9.108;2024-02-23T12:47:41;8.80;99.90
3086;DHT22;52812;48.960;9.108;2024-02-23T12:50:07;8.80;99.90
3086;DHT22;52812;48.960;9.108;2024-02-23T12:52:34;8.90;99.90
3086;DHT22;52812;48.960;9.108;2024-02-23T12:54:59;8.80;99.90
3086;DHT22;52812;48.960;9.108;2024-02-23T12:57:25;8.80;99.90
3086;DHT22;52812;48.960;9.108;2024-02-23T12:59:51;8.80;99.90
3086;DHT22;52812;48.960;9.108;2024-02-23T13:02:17;8.80;99.90
3086;DHT22;52812;48.960;9.108;2024-02-23T13:04:42;8.80;99.90
3086;DHT22;52812;48.960;9.108;2024-02-23T13:07:14;8.80;99.90
3086;DHT22;52812;48.960;9.108;2024-02-23T13:09:39;8.80;99.90
3086;DHT22;52812;48.960;9.108;2024-02-23T13:12:05;8.80;99.90
3086;DHT22;52812;48.960;9.108;2024-02-23T13:14:31;8.80;99.90
3086;DHT22;52812;48.960;9.108;2024-02-23T13:16:56;8.70;99.90
3086;DHT22;52812;48.960;9.108;2024-02-23T13:19:22;8.80;99.90
3086;DHT22;52812;48.960;9.108;2024-02-23T13:21:47;8.90;99.90
3086;DHT22;52812;48.960;9.108;2024-02-23T13:24:13;9.00;99.90
3086;DHT22;52812;48.960;9.108;2024-02-23T13:26:38;9.10;99.90
3086;DHT22;52812;48.960;9.108;2024-02-23T13:29:04;9.20;99.90
3086;DHT22;52812;48.960;9.108;2024-02-23T13:31:29;9.30;99.90
3086;DHT22;52812;48.960;9.108;2024-02-23T13:33:55;9.30;99.90
3086;DHT22;52812;48.960;9.108;2024-02-23T13:36:20;9.30;99.90
3086;DHT22;52812;48.960;9.108;2024-02-23T13:38:46;9.20;99.90
3086;DHT22;52812;48.960;9.108;2024-02-23T13:41:11;9.10;99.90
3086;DHT22;52812;48.960;9.108;2024-02-23T13:43:37;9.10;99.90
3086;DHT22;52812;48.960;9.108;2024-02-23T13:46:03;9.00;99.90
3086;DHT22;52812;48.960;9.108;2024-02-23T13:48:29;9.00;99.90
3086;DHT22;52812;48.960;9.108;2024-02-23T13:50:55;9.00;99.90
3086;DHT22;52812;48.960;9.108;2024-02-23T13:53:21;8.90;99.90
3086;DHT22;52812;48.960;9.108;2024-02-23T13:55:47;8.90;99.90
3086;DHT22;52812;48.960;9.108;2024-02-23T13:58:13;8.90;99.90
3086;DHT22;52812;48.960;9.108;2024-02-23T14:00:38;8.90;99.90
3086;DHT22;52812;48.960;9.108;2024-02-23T14:03:04;8.90;99.90
3086;DHT22;52812;48.960;9.108;2024-02-23T14:05:30;8.80;99.90
3086;DHT22;52812;48.960;9.108;2024-02-23T14:07:55;8.80;99.90
3086;DHT22;52812;48.960;9.108;2024-02-23T14:10:21;8.80;99.90
3086;DHT22;52812;48.960;9.108;2024-02-23T14:12:46;8.90;99.90
3086;DHT22;52812;48.960;9.108;2024-02-23T14:15:12;8.80;99.90
3086;DHT22;52812;48.960;9.108;2024-02-23T14:17:38;8.90;99.90
3086;DHT22;52812;48.960;9.108;2024-02-23T14:20:04;9.00;99.90
3086;DHT22;52812;48.960;9.108;2024-02-23T14:22:30;9.00;99.90
3086;DHT22;52812;48.960;9.108;2024-02-23T14:24:55;9.00;99.90
3086;DHT22;52812;48.960;9.108;2024-02-23T14:27:21;9.00;99.90
3086;DHT22;52812;48.960;9.108;2024-02-23T14:29:47;9.10;99.90
3086;DHT22;52812;48.960;9.108;2024-02-23T14:32:16;9.10;99.90
3086;DHT22;52812;48.960;9.108;2024-02-23T14:34:43;9.10;99.90
3086;DHT22;52812;48.960;9.108;2024-02-23T14:37:08;9.10;99.90
3086;DHT22;52812;48.960;9.108;2024-02-23T14:39:34;9.10;99.90
3086;DHT22;52812;48.960;9.108;2024-02-23T14:42:00;9.20;99.90
3086;DHT22;52812;48.960;9.108;2024-02-23T14:44:25;9.10;99.90
3086;DHT22;52812;48.960;9.108;2024-02-23T14:46:51;9.10;99.90
3086;DHT22;52812;48.960;9.108;2024-02-23T14:49:17;9.00;99.90
3086;DHT22;52812;48.960;9.108;2024-02-23T14:51:43;9.00;99.90
3086;DHT22;52812;48.960;9.108;2024-02-23T14:54:11;9.10;99.90
3086;DHT22;52812;48.960;9.108;2024-02-23T14:56:37;9.10;99.90
3086;DHT22;52812;48.960;9.108;2024-02-23T14:59:02;9.10;99.90
3086;DHT22;52812;48.960;9.108;2024-02-23T15:01:28;9.10;99.90
3086;DHT22;52812;48.960;9.108;2024-02-23T15:03:53;9.10;99.90
3086;DHT22;52812;48.960;9.108;2024-02-23T15:06:19;9.00;99.90
3086;DHT22;52812;48.960;9.108;2024-02-23T15:08:48;9.00;99.90
3086;DHT22;52812;48.960;9.108;2024-02-23T15:11:13;9.00;99.90
3086;DHT22;52812;48.960;9.108;2024-02-23T15:13:39;8.90;99.90
3086;DHT22;52812;48.960;9.108;2024-02-23T15:16:05;8.90;99.90
3086;DHT22;52812;48.960;9.108;2024-02-23T15:18:31;8.80;99.90
3086;DHT22;52812;48.960;9.108;2024-02-23T15:20:56;8.80;99.90
3086;DHT22;52812;48.960;9.108;2024-02-23T15:23:22;8.80;99.90
3086;DHT22;52812;48.960;9.108;2024-02-23T15:25:49;8.80;99.90
3086;DHT22;52812;48.960;9.108;2024-02-23T15:28:15;8.70;99.90
3086;DHT22;52812;48.960;9.108;2024-02-23T15:30:51;8.60;99.90
3086;DHT22;52812;48.960;9.108;2024-02-23T15:33:17;8.60;99.90
3086;DHT22;52812;48.960;9.108;2024-02-23T15:35:43;8.60;99.90
3086;DHT22;52812;48.960;9.108;2024-02-23T15:38:09;8.50;99.90
3086;DHT22;52812;48.960;9.108;2024-02-23T15:40:34;8.50;99.90
3086;DHT22;52812;48.960;9.108;2024-02-23T15:43:00;8.50;99.90
3086;DHT22;52812;48.960;9.108;2024-02-23T15:45:26;8.40;99.90
3086;DHT22;52812;48.960;9.108;2024-02-23T15:47:51;8.50;99.90
3086;DHT22;52812;48.960;9.108;2024-02-23T15:50:17;8.40;99.90
3086;DHT22;52812;48.960;9.108;2024-02-23T15:52:45;8.40;99.90
3086;DHT22;52812;48.960;9.108;2024-02-23T15:55:10;8.40;99.90